Time;durP1;ratioP1;P1;durP2;ratioP2;P2;SDS_P1;SDS_P2;PMS_P1;PMS_P2;Temp;Humidity;BMP_temperature;BMP_pressure;BME280_temperature;BME280_humidity;BME280_pressure;Samples;Min_cycle;Max_cycle;Signal;HPM_P1;HPM_P2
2022/08/12 11:46:04;;;;;;;2.75;2.55;;;;;;;;;;6282423;22;20564;-83
2022/08/12 11:48:35;;;;;;;4.82;2.83;;;;;;;;;;6309087;22;20046;-81
2022/08/12 14:48:00;;;;;;;4.05;2.53;;;;;;;;;;6305929;22;20007;-93
2022/08/12 14:50:26;;;;;;;3.70;2.55;;;;;;;;;;6310654;22;20015;-90
2022/08/12 14:52:52;;;;;;;3.45;2.70;;;;;;;;;;6309051;22;20026;-92
2022/08/12 14:55:17;;;;;;;2.88;2.58;;;;;;;;;;6310216;22;20008;-92
2022/08/12 14:57:54;;;;;;;4.13;2.90;;;;;;;;;;6310541;22;20469;-87
2022/08/12 15:03:07;;;;;;;4.50;2.80;;;;;;;;;;6310277;22;20014;-89
2022/08/12 15:05:37;;;;;;;4.07;2.85;;;;;;;;;;6310038;22;20004;-90
2022/08/12 15:08:10;;;;;;;3.45;2.70;;;;;;;;;;6310236;22;20003;-93
2022/08/12 15:10:45;;;;;;;3.47;2.80;;;;;;;;;;6310400;22;20003;-93
2022/08/12 15:13:11;;;;;;;5.60;2.75;;;;;;;;;;6310355;22;20078;-92
2022/08/12 15:15:44;;;;;;;4.93;2.95;;;;;;;;;;6310337;22;20094;-94
2022/08/12 15:18:11;;;;;;;9.98;4.20;;;;;;;;;;6309998;22;20063;-93
2022/08/12 15:20:37;;;;;;;5.43;3.25;;;;;;;;;;6310459;22;20003;-93
2022/08/12 15:23:09;;;;;;;4.15;2.80;;;;;;;;;;6310228;22;19999;-92
2022/08/12 15:25:39;;;;;;;5.15;3.30;;;;;;;;;;6309759;22;20013;-91
2022/08/12 15:28:06;;;;;;;3.78;3.20;;;;;;;;;;6310441;22;20011;-93
2022/08/12 15:30:34;;;;;;;5.18;3.10;;;;;;;;;;6311165;22;20007;-90
2022/08/12 15:33:01;;;;;;;4.78;3.03;;;;;;;;;;6309791;22;20007;-91
2022/08/12 15:35:27;;;;;;;4.57;3.60;;;;;;;;;;6309960;22;20007;-94
2022/08/12 15:38:02;;;;;;;4.95;3.63;;;;;;;;;;6311374;22;20438;-92
2022/08/12 15:40:29;;;;;;;4.72;3.10;;;;;;;;;;6310616;22;20084;-94
2022/08/12 15:42:57;;;;;;;5.28;2.90;;;;;;;;;;6309929;22;20010;-93
2022/08/12 15:45:22;;;;;;;4.82;3.67;;;;;;;;;;6309838;22;20060;-91
2022/08/12 15:47:51;;;;;;;4.95;3.78;;;;;;;;;;6310704;22;20433;-87
2022/08/12 15:50:19;;;;;;;5.13;3.63;;;;;;;;;;6309882;22;20372;-85
2022/08/12 15:52:44;;;;;;;4.65;3.63;;;;;;;;;;6309862;22;20023;-88
2022/08/12 15:55:12;;;;;;;5.15;3.42;;;;;;;;;;6309751;22;20003;-83
2022/08/12 15:57:52;;;;;;;4.53;3.22;;;;;;;;;;6310032;22;20000;-93
2022/08/12 16:00:18;;;;;;;;;;;;;;;;;;6312654;22;20045;-93
2022/08/12 16:02:44;;;;;;;4.55;3.63;;;;;;;;;;6311829;22;19997;-90
2022/08/12 16:05:11;;;;;;;4.82;3.42;;;;;;;;;;6310765;22;20053;-91
2022/08/12 16:07:37;;;;;;;6.20;3.80;;;;;;;;;;6311398;22;20441;-92
2022/08/12 16:10:04;;;;;;;4.05;3.17;;;;;;;;;;6312793;22;20094;-93
2022/08/12 16:12:31;;;;;;;4.00;3.10;;;;;;;;;;6312221;22;20102;-88
2022/08/12 16:14:57;;;;;;;4.03;3.38;;;;;;;;;;6312790;22;20033;-95
2022/08/12 16:17:23;;;;;;;4.63;3.65;;;;;;;;;;6313028;22;20000;-92
2022/08/12 16:19:50;;;;;;;8.93;4.40;;;;;;;;;;6326518;22;20006;-91
2022/08/12 16:22:16;;;;;;;5.85;3.60;;;;;;;;;;6314374;22;19995;-96
2022/08/12 16:24:43;;;;;;;6.18;3.80;;;;;;;;;;6312840;22;20060;-94
2022/08/12 16:27:11;;;;;;;6.25;3.67;;;;;;;;;;6313577;22;20015;-96
2022/08/12 16:29:40;;;;;;;6.43;3.80;;;;;;;;;;6313200;22;20007;-94
2022/08/12 16:32:06;;;;;;;7.60;3.73;;;;;;;;;;6311645;22;20074;-96
2022/08/12 16:34:35;;;;;;;4.97;3.55;;;;;;;;;;6310524;22;20594;-96
2022/08/12 16:37:12;;;;;;;6.15;3.50;;;;;;;;;;6315158;22;20022;-96
2022/08/12 16:39:38;;;;;;;3.42;3.13;;;;;;;;;;6321253;22;20437;-96
2022/08/12 16:42:04;;;;;;;6.95;3.00;;;;;;;;;;6321737;22;19999;-92
2022/08/12 16:44:31;;;;;;;3.20;3.00;;;;;;;;;;6322124;22;20070;-96
2022/08/12 16:46:59;;;;;;;4.25;3.20;;;;;;;;;;6316429;22;20015;-91
2022/08/12 16:49:25;;;;;;;4.72;3.40;;;;;;;;;;6313250;22;20061;-89
2022/08/12 16:51:51;;;;;;;4.40;3.67;;;;;;;;;;6311116;22;19995;-86
2022/08/12 16:54:20;;;;;;;4.60;4.20;;;;;;;;;;6310328;22;20032;-88
2022/08/12 16:56:49;;;;;;;4.03;3.67;;;;;;;;;;6311168;22;20011;-92
2022/08/12 16:59:15;;;;;;;5.38;3.85;;;;;;;;;;6312350;22;19999;-91
2022/08/12 17:01:43;;;;;;;4.28;3.45;;;;;;;;;;6314133;22;20072;-96
2022/08/12 17:04:09;;;;;;;3.40;3.10;;;;;;;;;;6310990;22;20019;-95
2022/08/12 17:06:40;;;;;;;3.78;3.30;;;;;;;;;;6310287;22;20010;-95
2022/08/12 17:09:06;;;;;;;4.35;3.65;;;;;;;;;;6309459;22;20008;-94
2022/08/12 17:11:32;;;;;;;4.47;3.50;;;;;;;;;;6310089;22;20010;-95
2022/08/12 17:13:58;;;;;;;3.70;3.40;;;;;;;;;;6309512;22;20045;-88
2022/08/12 17:16:24;;;;;;;3.85;3.55;;;;;;;;;;6309689;22;20057;-93
2022/08/12 17:18:50;;;;;;;7.28;3.22;;;;;;;;;;6308938;22;20311;-94
2022/08/12 17:21:17;;;;;;;3.65;3.35;;;;;;;;;;6310153;22;20060;-94
2022/08/12 17:23:49;;;;;;;4.97;3.00;;;;;;;;;;6309022;22;19999;-95
2022/08/12 17:26:18;;;;;;;4.45;3.50;;;;;;;;;;6311462;22;20436;-94
2022/08/12 17:28:46;;;;;;;3.15;2.92;;;;;;;;;;6316930;22;20023;-91
2022/08/12 17:31:13;;;;;;;4.78;3.47;;;;;;;;;;6313683;22;19999;-91
2022/08/12 17:33:40;;;;;;;5.38;3.28;;;;;;;;;;6320455;22;20026;-95
2022/08/12 17:36:06;;;;;;;4.07;3.30;;;;;;;;;;6311903;22;20011;-94
2022/08/12 17:38:35;;;;;;;3.85;3.10;;;;;;;;;;6311937;22;20010;-89
2022/08/12 17:41:01;;;;;;;3.38;3.08;;;;;;;;;;6309649;22;20007;-94
2022/08/12 17:43:27;;;;;;;4.82;3.50;;;;;;;;;;6308803;22;20005;-86
2022/08/12 17:45:55;;;;;;;3.40;3.17;;;;;;;;;;6309526;22;20014;-90
2022/08/12 17:48:21;;;;;;;3.78;3.20;;;;;;;;;;6307352;22;20015;-91
2022/08/12 17:50:49;;;;;;;3.53;3.22;;;;;;;;;;6308579;22;20433;-91
2022/08/12 17:53:17;;;;;;;4.28;3.72;;;;;;;;;;6333034;22;20073;-91
2022/08/12 17:55:50;;;;;;;3.83;3.13;;;;;;;;;;6308242;22;20007;-89
2022/08/12 17:58:17;;;;;;;3.65;3.30;;;;;;;;;;6308864;22;20060;-89
2022/08/12 18:00:44;;;;;;;3.83;3.50;;;;;;;;;;6311392;22;20002;-85
2022/08/12 18:03:13;;;;;;;4.50;3.38;;;;;;;;;;6310412;22;20003;-90
2022/08/12 18:05:40;;;;;;;4.03;3.65;;;;;;;;;;6312192;22;20014;-89
2022/08/12 18:08:07;;;;;;;4.30;3.40;;;;;;;;;;6312536;22;20031;-87
2022/08/12 18:13:28;;;;;;;3.58;3.28;;;;;;;;;;6312118;22;20322;-87
2022/08/12 18:16:03;;;;;;;3.83;3.50;;;;;;;;;;6311546;22;20003;-83
2022/08/12 19:07:49;;;;;;;3.90;3.50;;;;;;;;;;6312000;22;20076;-89
2022/08/12 19:10:16;;;;;;;3.72;3.40;;;;;;;;;;6309793;22;20459;-92
2022/08/12 19:15:27;;;;;;;3.45;3.15;;;;;;;;;;6310476;22;20073;-92
2022/08/12 19:17:54;;;;;;;3.88;3.50;;;;;;;;;;6309995;22;20372;-90
2022/08/12 19:20:20;;;;;;;4.00;3.22;;;;;;;;;;6308784;22;20437;-91
2022/08/12 19:22:46;;;;;;;3.88;3.28;;;;;;;;;;6310309;22;20002;-92
2022/08/12 19:25:22;;;;;;;3.40;3.13;;;;;;;;;;6310117;22;19995;-88
2022/08/12 19:27:50;;;;;;;3.60;3.30;;;;;;;;;;6310454;22;20006;-90
2022/08/12 19:33:12;;;;;;;3.70;3.40;;;;;;;;;;6310225;22;20496;-90
2022/08/12 19:35:40;;;;;;;4.05;3.40;;;;;;;;;;6310066;22;20410;-90
2022/08/12 19:38:08;;;;;;;3.25;2.92;;;;;;;;;;6309925;22;20003;-89
2022/08/12 19:40:37;;;;;;;3.70;3.40;;;;;;;;;;6310246;22;20085;-90
2022/08/12 19:43:11;;;;;;;3.78;3.40;;;;;;;;;;6310821;22;20003;-92
2022/08/12 19:45:39;;;;;;;5.10;3.78;;;;;;;;;;6310192;22;20078;-90
2022/08/12 19:48:13;;;;;;;3.75;3.45;;;;;;;;;;6308969;22;20457;-92
2022/08/12 19:50:39;;;;;;;3.75;3.38;;;;;;;;;;6310651;22;20077;-90
2022/08/12 19:53:08;;;;;;;4.28;3.70;;;;;;;;;;6309834;22;20008;-89
2022/08/12 19:55:38;;;;;;;3.78;3.47;;;;;;;;;;6309661;22;20000;-88
2022/08/12 19:58:06;;;;;;;3.80;3.50;;;;;;;;;;6311711;22;20037;-88
2022/08/12 20:00:33;;;;;;;3.47;3.17;;;;;;;;;;6310730;22;20004;-89
2022/08/12 20:02:59;;;;;;;3.53;3.22;;;;;;;;;;6309570;22;19999;-91
2022/08/12 20:05:26;;;;;;;3.47;3.17;;;;;;;;;;6310603;22;20010;-90
2022/08/12 20:07:54;;;;;;;5.82;3.53;;;;;;;;;;6309531;22;20003;-85
2022/08/12 20:10:20;;;;;;;5.18;3.97;;;;;;;;;;6307332;22;20003;-85
2022/08/12 20:12:46;;;;;;;5.30;3.72;;;;;;;;;;6309027;22;20322;-84
2022/08/12 20:15:14;;;;;;;4.30;3.28;;;;;;;;;;6308677;22;20006;-84
2022/08/12 20:17:39;;;;;;;3.88;3.58;;;;;;;;;;6309517;22;20003;-85
2022/08/12 20:20:08;;;;;;;4.35;3.13;;;;;;;;;;6308861;22;20011;-84
2022/08/12 20:22:33;;;;;;;4.05;3.65;;;;;;;;;;6308400;22;20073;-85
2022/08/12 20:25:05;;;;;;;5.43;3.60;;;;;;;;;;6308902;22;19999;-88
2022/08/12 20:27:32;;;;;;;3.53;3.22;;;;;;;;;;6309343;22;20078;-88
2022/08/12 20:29:58;;;;;;;6.10;3.58;;;;;;;;;;6308870;22;20052;-88
2022/08/12 20:32:25;;;;;;;3.40;3.10;;;;;;;;;;6308921;22;20034;-87
2022/08/12 20:34:52;;;;;;;3.40;3.10;;;;;;;;;;6308994;22;19999;-87
2022/08/12 20:37:17;;;;;;;4.28;3.40;;;;;;;;;;6308563;22;20015;-84
2022/08/12 20:39:43;;;;;;;4.97;3.40;;;;;;;;;;6308829;22;19999;-87
2022/08/12 20:42:09;;;;;;;4.18;3.38;;;;;;;;;;6308662;22;20011;-83
2022/08/12 20:44:39;;;;;;;3.83;3.13;;;;;;;;;;6308729;22;20003;-82
2022/08/12 20:47:05;;;;;;;4.47;4.05;;;;;;;;;;6308664;22;20007;-89
2022/08/12 20:49:38;;;;;;;5.05;4.20;;;;;;;;;;6307498;22;20322;-90
2022/08/12 20:52:14;;;;;;;3.80;3.40;;;;;;;;;;6308995;22;20007;-88
2022/08/12 20:54:48;;;;;;;3.50;3.20;;;;;;;;;;6309011;22;19999;-90
2022/08/12 20:57:20;;;;;;;3.40;3.10;;;;;;;;;;6309311;22;20011;-89
2022/08/12 20:59:51;;;;;;;4.45;3.00;;;;;;;;;;6308833;22;20006;-86
2022/08/12 21:02:18;;;;;;;5.50;2.58;;;;;;;;;;6309021;22;20009;-88
2022/08/12 21:07:32;;;;;;;3.53;3.03;;;;;;;;;;6308943;22;20041;-87
2022/08/12 21:09:59;;;;;;;5.15;2.80;;;;;;;;;;6306749;22;20011;-85
2022/08/12 21:12:26;;;;;;;3.95;2.72;;;;;;;;;;6308407;22;20460;-86
2022/08/12 21:14:57;;;;;;;4.88;3.30;;;;;;;;;;6308306;22;20030;-87
2022/08/12 21:17:26;;;;;;;3.30;3.00;;;;;;;;;;6308533;22;20010;-86
2022/08/12 21:19:53;;;;;;;2.80;2.60;;;;;;;;;;6308573;22;20084;-87
2022/08/12 21:22:19;;;;;;;2.35;2.15;;;;;;;;;;6308845;22;20641;-88
2022/08/12 21:24:44;;;;;;;2.95;2.42;;;;;;;;;;6308450;22;20007;-87
2022/08/12 21:27:12;;;;;;;3.10;2.90;;;;;;;;;;6308585;22;20299;-86
2022/08/12 21:29:43;;;;;;;2.67;2.47;;;;;;;;;;6308259;22;20322;-87
2022/08/12 21:32:11;;;;;;;2.92;2.25;;;;;;;;;;6309103;22;19999;-88
2022/08/12 21:34:37;;;;;;;2.67;2.47;;;;;;;;;;6310367;22;20433;-87
2022/08/12 21:37:04;;;;;;;2.15;2.05;;;;;;;;;;6310591;22;20440;-89
2022/08/12 21:39:32;;;;;;;2.40;2.20;;;;;;;;;;6309034;22;19999;-87
2022/08/12 21:42:00;;;;;;;2.55;2.35;;;;;;;;;;6310701;22;20307;-89
2022/08/12 21:44:29;;;;;;;3.10;2.13;;;;;;;;;;6308889;22;20079;-87
2022/08/12 21:46:54;;;;;;;;;;;;;;;;;;6311111;22;20326;-86
2022/08/12 21:49:20;;;;;;;2.90;2.70;;;;;;;;;;6309156;22;19964;-87
2022/08/12 21:51:51;;;;;;;2.28;2.08;;;;;;;;;;6310536;22;20034;-84
2022/08/12 21:54:18;;;;;;;2.88;2.20;;;;;;;;;;6310351;22;20003;-86
2022/08/12 21:56:45;;;;;;;2.40;2.20;;;;;;;;;;6310433;22;20007;-89
2022/08/12 21:59:14;;;;;;;2.92;2.65;;;;;;;;;;6311060;22;20078;-91
2022/08/12 22:01:40;;;;;;;;;;;;;;;;;;6311776;22;19999;-92
